Time;durP1;ratioP1;P1;durP2;ratioP2;P2;SDS_P1;SDS_P2;PMS_P1;PMS_P2;Temp;Humidity;BMP_temperature;BMP_pressure;BME280_temperature;BME280_humidity;BME280_pressure;Samples;Min_cycle;Max_cycle;Signal;HPM_P1;HPM_P2
2022/01/22 00:00:29;;;;;;;23.90;8.10;;;;;;;-3.16;72.53;98754.81;106056;1274;113316;-67
2022/01/22 00:03:10;;;;;;;24.90;7.90;;;;;;;-3.17;72.32;98752.75;106144;1274;99296;-68
2022/01/22 00:05:38;;;;;;;24.50;7.70;;;;;;;-3.18;72.60;98761.45;105945;1274;105428;-69
2022/01/22 00:08:06;;;;;;;26.90;8.50;;;;;;;-3.19;72.46;98759.91;105966;1274;99246;-70
2022/01/22 00:10:34;;;;;;;20.80;7.30;;;;;;;-3.20;72.69;98755.94;106031;1274;99231;-69
2022/01/22 00:15:31;;;;;;;25.60;8.30;;;;;;;-3.19;72.47;98747.23;106138;1274;99258;-67
2022/01/22 00:17:59;;;;;;;25.80;6.60;;;;;;;-3.18;72.31;98744.59;106070;1274;108317;-70
2022/01/22 00:20:29;;;;;;;27.40;7.40;;;;;;;-3.19;72.33;98743.41;105917;1275;99223;-72
2022/01/22 00:22:59;;;;;;;26.40;7.20;;;;;;;-3.20;72.39;98737.20;106216;1274;97756;-70
2022/01/22 00:25:27;;;;;;;25.80;7.30;;;;;;;-3.19;72.29;98735.61;106018;1274;113333;-69
2022/01/22 00:27:55;;;;;;;21.10;6.60;;;;;;;-3.18;72.27;98732.13;105989;1274;97674;-69
2022/01/22 00:30:26;;;;;;;24.80;8.10;;;;;;;-3.18;72.26;98735.41;106023;1274;106858;-68
2022/01/22 00:32:56;;;;;;;23.70;7.00;;;;;;;-3.18;72.22;98740.96;106048;1274;99193;-70
2022/01/22 00:35:26;;;;;;;25.50;7.10;;;;;;;-3.15;72.08;98740.04;106045;1274;99345;-66
2022/01/22 00:37:54;;;;;;;21.30;6.50;;;;;;;-3.15;72.29;98736.92;106056;1274;113542;-70
2022/01/22 00:40:23;;;;;;;20.40;6.00;;;;;;;-3.15;72.24;98735.00;106069;1274;99221;-67
2022/01/22 00:42:51;;;;;;;22.80;7.30;;;;;;;-3.14;72.15;98730.47;106114;1274;107634;-69
2022/01/22 00:45:21;;;;;;;24.90;7.40;;;;;;;-3.13;72.11;98732.38;105921;1274;99200;-70
2022/01/22 00:47:50;;;;;;;21.10;7.40;;;;;;;-3.12;72.01;98731.66;106053;1274;99198;-71
2022/01/22 00:50:24;;;;;;;21.70;7.30;;;;;;;-3.13;72.15;98735.14;106133;1274;113484;-66
2022/01/22 00:52:53;;;;;;;19.10;6.50;;;;;;;-3.12;72.30;98735.98;106077;1274;99338;-70
2022/01/22 00:55:21;;;;;;;26.70;6.70;;;;;;;-3.12;72.06;98734.77;106142;1274;107806;-72
2022/01/22 00:57:49;;;;;;;22.70;6.90;;;;;;;-3.12;72.01;98738.42;106017;1274;99304;-71
2022/01/22 01:00:18;;;;;;;24.90;6.90;;;;;;;-3.13;72.02;98740.52;106035;1274;96626;-72
2022/01/22 01:02:46;;;;;;;26.50;8.50;;;;;;;-3.12;72.17;98737.90;105926;1274;112724;-69
2022/01/22 01:05:16;;;;;;;23.30;7.60;;;;;;;-3.11;72.17;98735.81;106589;1274;99216;-71
2022/01/22 01:07:44;;;;;;;25.90;8.40;;;;;;;-3.10;72.12;98738.02;106105;1274;107636;-71
2022/01/22 01:10:18;;;;;;;25.40;7.10;;;;;;;-3.09;72.01;98733.16;106025;1272;99106;-70
2022/01/22 01:12:47;;;;;;;22.60;7.30;;;;;;;-3.09;71.89;98730.72;106148;1275;99447;-70
2022/01/22 01:18:06;;;;;;;23.00;6.80;;;;;;;-3.08;72.14;98735.73;105934;1274;97704;-67
2022/01/22 01:34:27;;;;;;;24.80;6.50;;;;;;;-3.02;71.85;98740.61;105948;1274;108728;-71
2022/01/22 01:36:57;;;;;;;19.50;6.30;;;;;;;-3.02;71.94;98736.64;106114;1274;99238;-71
2022/01/22 01:39:30;;;;;;;24.40;7.70;;;;;;;-3.02;72.03;98740.27;106091;1274;100035;-69
2022/01/22 01:42:12;;;;;;;21.00;6.70;;;;;;;-3.02;72.01;98734.70;106060;1274;112881;-70
2022/01/22 01:44:42;;;;;;;25.20;7.10;;;;;;;-3.01;72.02;98740.94;106193;1274;99239;-70
2022/01/22 01:47:15;;;;;;;23.20;6.20;;;;;;;-3.02;72.11;98737.50;106147;1274;107760;-68
2022/01/22 01:49:47;;;;;;;18.80;6.30;;;;;;;-3.02;71.88;98738.70;106063;1274;99329;-68
2022/01/22 01:52:22;;;;;;;26.60;7.00;;;;;;;-3.02;71.91;98740.61;106110;1274;100117;-69
2022/01/22 01:55:36;;;;;;;22.50;6.30;;;;;;;-3.01;71.96;98743.55;106032;1274;112834;-69
2022/01/22 01:57:42;;;;;;;22.90;7.60;;;;;;;-3.01;71.82;98742.49;106135;1274;99316;-70
2022/01/22 02:00:15;;;;;;;21.80;6.50;;;;;;;-3.02;72.00;98745.48;106184;1272;107677;-69
2022/01/22 02:02:46;;;;;;;21.70;6.40;;;;;;;-3.03;72.01;98743.75;106063;1274;99230;-69
2022/01/22 02:05:17;;;;;;;20.00;5.80;;;;;;;-3.02;71.61;98743.40;106046;1274;99301;-70
2022/01/22 02:07:45;;;;;;;21.30;5.70;;;;;;;-3.02;71.84;98744.80;106031;1274;114110;-70
2022/01/22 02:10:21;;;;;;;18.10;6.40;;;;;;;-3.01;71.89;98744.77;106030;1274;99285;-69
2022/01/22 02:23:54;;;;;;;22.60;7.70;;;;;;;-3.05;71.73;98745.55;106178;1274;99224;-70
2022/01/22 02:26:24;;;;;;;20.90;6.20;;;;;;;-3.09;71.62;98734.02;105976;1274;107699;-66
2022/01/22 02:28:53;;;;;;;22.00;6.90;;;;;;;-3.10;71.83;98733.00;106034;1274;99309;-70
2022/01/22 02:31:33;;;;;;;20.10;6.60;;;;;;;-3.12;71.60;98730.27;106056;1274;96610;-71
2022/01/22 02:39:21;;;;;;;21.30;6.40;;;;;;;-3.18;71.75;98733.70;106143;1274;107634;-70
2022/01/22 02:41:52;;;;;;;23.50;6.70;;;;;;;-3.20;71.70;98731.30;106121;1274;99317;-69
2022/01/22 02:44:33;;;;;;;23.20;6.30;;;;;;;-3.22;71.66;98733.06;106051;1274;99186;-66
2022/01/22 02:47:06;;;;;;;24.40;6.30;;;;;;;-3.23;71.73;98734.33;106036;1274;112442;-70
2022/01/22 02:49:37;;;;;;;25.00;7.90;;;;;;;-3.26;71.74;98737.50;106072;1274;99227;-69
2022/01/22 02:52:11;;;;;;;20.80;6.10;;;;;;;-3.29;71.72;98740.00;106012;1274;107666;-71
2022/01/22 02:54:39;;;;;;;20.50;6.20;;;;;;;-3.31;71.85;98742.13;106045;1274;99189;-70
2022/01/22 02:57:11;;;;;;;19.00;6.20;;;;;;;-3.37;71.78;98746.41;106018;1274;99289;-71
2022/01/22 02:59:43;;;;;;;21.10;6.10;;;;;;;-3.40;71.98;98746.66;106010;1274;113332;-69
2022/01/22 03:02:16;;;;;;;19.00;6.30;;;;;;;-3.43;71.91;98747.55;106156;1274;97949;-68
2022/01/22 03:04:44;;;;;;;21.60;7.30;;;;;;;-3.45;71.60;98752.98;106077;1274;108170;-70
2022/01/22 03:07:12;;;;;;;22.60;7.10;;;;;;;-3.47;71.72;98749.57;106045;1274;99338;-68
2022/01/22 03:09:43;;;;;;;22.20;6.40;;;;;;;-3.49;71.61;98746.15;106054;1274;99255;-69
2022/01/22 03:18:16;;;;;;;21.00;5.40;;;;;;;-3.55;71.92;98741.08;105642;1280;107554;-70
2022/01/22 03:28:56;;;;;;;19.50;4.80;;;;;;;-3.61;71.77;98733.04;106136;1274;99144;-68
2022/01/22 03:31:26;;;;;;;19.20;6.00;;;;;;;-3.62;71.83;98726.13;104897;1274;1784764;-69
2022/01/22 03:33:56;;;;;;;20.70;5.80;;;;;;;-3.63;71.86;98723.54;106072;1274;99203;-69
2022/01/22 03:36:32;;;;;;;19.60;6.60;;;;;;;-3.65;72.05;98720.63;106176;1274;97580;-70
2022/01/22 03:39:07;;;;;;;18.40;5.00;;;;;;;-3.67;71.86;98728.30;106122;1274;112729;-69
2022/01/22 03:41:38;;;;;;;16.60;4.90;;;;;;;-3.69;71.88;98729.91;106220;1274;100394;-69
2022/01/22 03:44:08;;;;;;;19.30;5.50;;;;;;;-3.71;71.70;98731.33;106193;1274;107563;-70
2022/01/22 03:46:41;;;;;;;21.10;5.70;;;;;;;-3.72;71.81;98724.60;106183;1273;99245;-71
2022/01/22 03:49:10;;;;;;;16.20;5.10;;;;;;;-3.73;71.95;98733.11;106179;1274;96766;-70
2022/01/22 03:51:39;;;;;;;20.10;5.10;;;;;;;-3.74;71.92;98733.30;106171;1273;113460;-71
2022/01/22 03:54:07;;;;;;;16.60;4.30;;;;;;;-3.74;71.76;98731.74;106161;1274;99243;-71
2022/01/22 03:56:38;;;;;;;18.30;4.80;;;;;;;-3.75;71.85;98732.63;106137;1274;107639;-69
2022/01/22 03:59:09;;;;;;;15.50;5.10;;;;;;;-3.75;72.03;98732.80;106114;1274;96585;-70
2022/01/22 04:04:33;;;;;;;16.30;4.60;;;;;;;-3.74;71.90;98736.23;106106;1274;112584;-68
2022/01/22 04:09:43;;;;;;;24.30;5.40;;;;;;;-3.74;71.88;98735.71;106185;1273;107598;-68
2022/01/22 04:12:25;;;;;;;16.10;4.50;;;;;;;-3.74;71.72;98736.76;106242;1274;99327;-69
2022/01/22 04:15:02;;;;;;;15.70;4.80;;;;;;;-3.73;71.87;98739.52;106221;1274;99920;-68
2022/01/22 04:25:37;;;;;;;15.20;4.30;;;;;;;-3.68;71.68;98743.42;106103;1274;99223;-71
2022/01/22 04:28:05;;;;;;;19.50;4.80;;;;;;;-3.67;71.84;98743.92;106120;1274;98337;-70
2022/01/22 04:30:33;;;;;;;14.90;4.40;;;;;;;-3.66;71.74;98747.87;106209;1274;112285;-71
2022/01/22 04:33:04;;;;;;;15.30;4.50;;;;;;;-3.63;71.98;98747.81;106239;1274;99065;-70
2022/01/22 04:35:35;;;;;;;15.90;4.40;;;;;;;-3.63;72.08;98753.35;106150;1274;107648;-69
2022/01/22 04:38:04;;;;;;;15.40;4.00;;;;;;;-3.63;71.79;98753.52;106170;1274;99214;-68
2022/01/22 04:40:32;;;;;;;16.60;4.20;;;;;;;-3.63;71.77;98758.54;106194;1274;99203;-68
2022/01/22 04:43:02;;;;;;;10.60;3.60;;;;;;;-3.63;71.86;98758.02;106014;1276;113555;-67
2022/01/22 04:56:13;;;;;;;19.30;5.20;;;;;;;-3.54;71.93;98741.05;106143;1274;113500;-71
2022/01/22 04:58:42;;;;;;;13.20;4.80;;;;;;;-3.51;72.16;98741.51;106153;1274;99278;-68
2022/01/22 05:01:09;;;;;;;10.20;3.70;;;;;;;-3.51;71.94;98738.90;106101;1274;107719;-70
2022/01/22 05:03:38;;;;;;;14.80;4.30;;;;;;;-3.50;71.80;98745.64;106115;1274;99285;-70
2022/01/22 05:06:06;;;;;;;16.50;5.20;;;;;;;-3.50;72.05;98749.29;106290;1272;99194;-69
2022/01/22 05:08:38;;;;;;;14.80;4.70;;;;;;;-3.49;72.22;98745.61;106213;1274;113672;-68
2022/01/22 05:11:06;;;;;;;13.70;4.70;;;;;;;-3.48;71.80;98748.20;106282;1273;96629;-69
2022/01/22 05:13:38;;;;;;;11.10;4.40;;;;;;;-3.47;71.99;98747.48;106239;1274;108389;-68
2022/01/22 05:16:05;;;;;;;12.80;4.50;;;;;;;-3.48;71.62;98749.76;106256;1274;99306;-70
2022/01/22 05:18:44;;;;;;;15.90;4.80;;;;;;;-3.50;71.95;98754.48;106165;1274;99398;-69
2022/01/22 05:21:17;;;;;;;16.70;5.30;;;;;;;-3.50;72.00;98756.73;106354;1274;112716;-71
2022/01/22 05:23:49;;;;;;;13.20;4.50;;;;;;;-3.50;71.85;98752.23;106289;1274;99349;-69
2022/01/22 05:37:08;;;;;;;15.90;5.10;;;;;;;-3.55;71.92;98754.77;106173;1274;99019;-69
2022/01/22 05:39:38;;;;;;;19.00;6.10;;;;;;;-3.56;72.02;98756.34;106104;1276;108360;-68
2022/01/22 05:42:09;;;;;;;17.00;5.90;;;;;;;-3.56;72.03;98752.88;106168;1274;99317;-68
2022/01/22 05:44:37;;;;;;;17.00;5.70;;;;;;;-3.58;72.13;98752.55;106187;1274;98450;-70
2022/01/22 05:47:08;;;;;;;21.20;7.40;;;;;;;-3.58;72.02;98758.30;106151;1274;112656;-70
2022/01/22 05:49:41;;;;;;;16.90;5.80;;;;;;;-3.60;72.12;98758.15;106133;1274;99210;-70
2022/01/22 05:52:14;;;;;;;19.20;7.60;;;;;;;-3.60;71.92;98760.22;106216;1274;107606;-70
2022/01/22 05:54:57;;;;;;;17.10;6.00;;;;;;;-3.62;71.90;98760.42;106156;1274;99299;-70
2022/01/22 06:00:15;;;;;;;17.90;6.00;;;;;;;-3.63;72.07;98768.77;106085;1272;113105;-70
2022/01/22 06:02:42;;;;;;;16.70;5.80;;;;;;;-3.63;72.19;98775.53;106149;1274;99189;-71
2022/01/22 06:05:10;;;;;;;18.80;5.70;;;;;;;-3.62;72.12;98780.20;106057;1273;106824;-70
2022/01/22 06:07:38;;;;;;;18.70;6.00;;;;;;;-3.62;71.98;98775.69;106051;1274;99007;-70
2022/01/22 06:10:17;;;;;;;16.20;5.70;;;;;;;-3.62;72.09;98774.83;106144;1274;99159;-68
2022/01/22 06:15:20;;;;;;;20.90;6.80;;;;;;;-3.64;72.18;98771.39;106095;1274;99226;-70
2022/01/22 06:17:51;;;;;;;20.40;8.90;;;;;;;-3.63;72.20;98772.58;106035;1274;108357;-68
2022/01/22 06:20:19;;;;;;;22.70;7.40;;;;;;;-3.63;72.19;98775.55;106074;1273;99367;-68
2022/01/22 06:22:47;;;;;;;21.20;7.00;;;;;;;-3.63;72.13;98769.47;106103;1274;97357;-69
2022/01/22 06:25:15;;;;;;;24.90;7.90;;;;;;;-3.61;72.15;98777.23;106064;1274;113365;-68
2022/01/22 06:27:43;;;;;;;22.10;7.40;;;;;;;-3.59;72.08;98788.09;106080;1273;99284;-68
2022/01/22 06:30:12;;;;;;;19.70;6.60;;;;;;;-3.57;72.32;98790.85;106080;1274;108465;-70
2022/01/22 06:32:40;;;;;;;19.10;7.00;;;;;;;-3.57;72.22;98791.90;106099;1272;99348;-71
2022/01/22 06:35:09;;;;;;;22.50;9.30;;;;;;;-3.57;72.17;98793.45;106016;1274;96610;-71
2022/01/22 06:37:37;;;;;;;19.60;6.70;;;;;;;-3.55;72.36;98789.09;106087;1274;111054;-71
2022/01/22 06:42:37;;;;;;;22.70;9.10;;;;;;;-3.52;72.30;98789.55;106052;1274;106107;-69
2022/01/22 06:45:08;;;;;;;21.00;7.70;;;;;;;-3.52;72.33;98790.58;106036;1274;99267;-69
2022/01/22 06:47:40;;;;;;;21.00;7.20;;;;;;;-3.50;72.44;98799.58;105993;1274;99257;-69
2022/01/22 06:50:09;;;;;;;19.20;7.20;;;;;;;-3.50;72.68;98805.45;105928;1274;113345;-68
2022/01/22 06:52:39;;;;;;;19.00;7.20;;;;;;;-3.49;72.50;98807.69;105973;1273;99283;-70
2022/01/22 06:55:17;;;;;;;19.60;7.30;;;;;;;-3.48;72.32;98800.90;106019;1274;107766;-71
2022/01/22 06:57:45;;;;;;;19.80;7.80;;;;;;;-3.47;72.40;98791.38;106017;1273;99218;-67
2022/01/22 07:00:13;;;;;;;23.10;7.30;;;;;;;-3.48;72.44;98789.11;106013;1273;98322;-69
2022/01/22 07:02:41;;;;;;;21.30;8.50;;;;;;;-3.46;72.58;98789.92;106013;1274;112889;-70
2022/01/22 07:05:09;;;;;;;19.50;7.60;;;;;;;-3.45;72.56;98795.64;106056;1274;99214;-70
2022/01/22 07:07:37;;;;;;;24.10;8.20;;;;;;;-3.45;72.46;98793.71;106018;1274;107623;-70
2022/01/22 07:10:08;;;;;;;21.50;8.00;;;;;;;-3.43;72.46;98794.21;106039;1273;96657;-71
2022/01/22 07:12:35;;;;;;;23.50;9.00;;;;;;;-3.42;72.76;98794.71;106050;1274;99239;-71
2022/01/22 07:15:04;;;;;;;23.30;8.40;;;;;;;-3.42;72.52;98796.61;106041;1274;112706;-70
2022/01/22 07:17:36;;;;;;;25.10;9.70;;;;;;;-3.41;72.47;98794.52;106025;1273;99431;-70
2022/01/22 07:20:18;;;;;;;26.20;9.70;;;;;;;-3.39;72.53;98802.64;106053;1274;107717;-71
2022/01/22 07:23:02;;;;;;;24.00;8.40;;;;;;;-3.35;72.59;98806.39;106058;1274;99252;-70
2022/01/22 07:25:33;;;;;;;21.40;8.70;;;;;;;-3.33;72.43;98806.51;106041;1274;97746;-71
2022/01/22 07:28:01;;;;;;;27.00;9.50;;;;;;;-3.32;72.92;98810.30;106100;1274;112462;-70
2022/01/22 07:30:30;;;;;;;24.90;9.60;;;;;;;-3.31;72.65;98808.89;105828;1275;99880;-69
2022/01/22 07:32:58;;;;;;;22.60;8.30;;;;;;;-3.29;72.58;98813.87;105886;1273;107704;-69
2022/01/22 07:35:26;;;;;;;23.30;9.10;;;;;;;-3.25;72.78;98817.27;105914;1274;99108;-71
2022/01/22 07:37:54;;;;;;;23.80;9.50;;;;;;;-3.23;72.50;98821.21;105932;1274;99788;-71
2022/01/22 07:40:22;;;;;;;24.70;8.90;;;;;;;-3.22;72.51;98831.59;105910;1274;112557;-71
2022/01/22 07:42:50;;;;;;;23.20;8.80;;;;;;;-3.22;72.78;98835.08;106012;1273;99221;-72
2022/01/22 07:45:18;;;;;;;21.40;7.90;;;;;;;-3.22;72.56;98837.33;105680;1274;107903;-71
2022/01/22 07:47:45;;;;;;;21.60;8.70;;;;;;;-3.22;72.59;98840.45;105963;1272;97929;-69
2022/01/22 07:50:13;;;;;;;24.80;9.90;;;;;;;-3.21;72.73;98838.86;105934;1274;98091;-71
2022/01/22 07:52:41;;;;;;;24.20;9.70;;;;;;;-3.19;72.63;98839.52;106163;1274;112736;-70
2022/01/22 07:55:09;;;;;;;26.00;10.00;;;;;;;-3.19;72.82;98838.29;106159;1274;99227;-70
2022/01/22 07:57:37;;;;;;;25.30;9.80;;;;;;;-3.17;72.99;98839.81;106040;1274;106622;-70
2022/01/22 08:00:06;;;;;;;21.90;8.90;;;;;;;-3.14;72.97;98834.56;105986;1274;99307;-69
2022/01/22 08:02:34;;;;;;;24.30;8.60;;;;;;;-3.11;72.77;98832.59;106149;1274;99249;-71
2022/01/22 08:05:02;;;;;;;26.80;10.40;;;;;;;-3.07;72.95;98835.47;106165;1274;112712;-70
2022/01/22 08:07:30;;;;;;;26.90;11.80;;;;;;;-3.04;72.65;98826.19;106205;1273;100416;-70
2022/01/22 08:09:58;;;;;;;29.20;14.00;;;;;;;-3.03;72.58;98824.95;106036;1274;108024;-69
2022/01/22 08:12:26;;;;;;;29.20;12.50;;;;;;;-2.98;72.52;98824.16;106126;1274;98667;-70
2022/01/22 08:14:54;;;;;;;26.80;11.60;;;;;;;-2.94;72.91;98824.42;106276;1274;97661;-72
2022/01/22 08:17:22;;;;;;;23.80;10.20;;;;;;;-2.92;72.86;98832.19;106217;1273;112714;-71
2022/01/22 08:19:50;;;;;;;24.40;9.70;;;;;;;-2.90;72.84;98831.64;106065;1274;99268;-70
2022/01/22 08:22:18;;;;;;;25.60;10.10;;;;;;;-2.88;72.95;98837.30;106013;1274;108180;-72
2022/01/22 08:24:46;;;;;;;25.80;10.50;;;;;;;-2.82;73.08;98843.78;106058;1273;99310;-70
2022/01/22 08:27:21;;;;;;;25.00;9.50;;;;;;;-2.79;73.14;98844.05;106073;1274;99343;-71
2022/01/22 08:29:49;;;;;;;23.10;9.40;;;;;;;-2.77;72.87;98854.93;106054;1273;113217;-69
2022/01/22 08:37:31;;;;;;;27.80;10.80;;;;;;;-2.74;73.17;98872.06;106076;1273;99122;-73
2022/01/22 08:40:00;;;;;;;27.00;10.40;;;;;;;-2.74;72.98;98878.32;106113;1274;99254;-73
2022/01/22 08:42:28;;;;;;;25.80;10.20;;;;;;;-2.75;73.05;98876.94;106172;1274;112725;-72
2022/01/22 08:44:56;;;;;;;29.00;11.70;;;;;;;-2.75;73.03;98878.86;106149;1273;99244;-74
2022/01/22 08:47:24;;;;;;;27.50;12.60;;;;;;;-2.75;73.07;98879.02;106144;1273;107697;-72
2022/01/22 08:49:52;;;;;;;24.90;11.10;;;;;;;-2.74;73.18;98880.74;106152;1274;99310;-73
2022/01/22 08:52:24;;;;;;;25.50;11.30;;;;;;;-2.73;73.05;98882.64;106212;1274;99290;-72
2022/01/22 08:54:52;;;;;;;28.90;13.00;;;;;;;-2.70;73.09;98886.91;106173;1274;112757;-72
2022/01/22 08:57:26;;;;;;;24.60;10.70;;;;;;;-2.65;73.03;98884.88;106265;1274;99239;-72
2022/01/22 08:59:54;;;;;;;26.80;11.40;;;;;;;-2.63;73.01;98889.53;106198;1274;107922;-72
2022/01/22 09:02:22;;;;;;;25.60;12.00;;;;;;;-2.64;73.15;98896.67;106145;1273;99234;-73
2022/01/22 09:04:52;;;;;;;31.40;12.10;;;;;;;-2.63;73.03;98891.80;106131;1274;99214;-72
2022/01/22 09:07:20;;;;;;;28.50;13.30;;;;;;;-2.64;72.92;98896.15;106076;1274;112719;-71
2022/01/22 09:09:48;;;;;;;28.50;12.00;;;;;;;-2.61;72.93;98902.34;106113;1272;99084;-72
2022/01/22 09:12:16;;;;;;;28.50;11.20;;;;;;;-2.58;73.10;98909.38;106091;1274;107728;-73
2022/01/22 09:14:44;;;;;;;28.30;14.00;;;;;;;-2.56;73.32;98904.99;106112;1273;99337;-72
2022/01/22 09:17:13;;;;;;;30.80;12.30;;;;;;;-2.55;73.37;98904.97;106045;1274;99228;-71
2022/01/22 09:19:46;;;;;;;27.90;12.50;;;;;;;-2.58;73.07;98895.15;106070;1274;112802;-73
2022/01/22 09:22:15;;;;;;;29.40;13.40;;;;;;;-2.59;73.03;98891.88;106086;1274;99332;-72
2022/01/22 09:24:43;;;;;;;30.80;13.40;;;;;;;-2.59;73.13;98892.23;106057;1274;107556;-71
2022/01/22 09:27:12;;;;;;;30.90;13.60;;;;;;;-2.58;73.10;98897.59;106106;1273;99232;-72
2022/01/22 09:29:41;;;;;;;32.50;12.80;;;;;;;-2.54;73.29;98898.38;106190;1274;99232;-72
2022/01/22 09:32:09;;;;;;;28.90;11.70;;;;;;;-2.52;73.18;98904.05;106046;1274;113855;-71
2022/01/22 09:34:40;;;;;;;30.00;12.30;;;;;;;-2.49;73.12;98900.87;106233;1274;99573;-71
2022/01/22 09:37:08;;;;;;;29.10;12.70;;;;;;;-2.43;73.24;98907.67;106188;1274;107831;-72
2022/01/22 09:39:36;;;;;;;31.90;13.60;;;;;;;-2.38;73.23;98908.44;106066;1274;99987;-69
2022/01/22 09:42:04;;;;;;;28.00;13.70;;;;;;;-2.36;73.21;98904.39;106079;1274;99181;-70
2022/01/22 09:44:33;;;;;;;29.80;12.10;;;;;;;-2.35;73.16;98905.43;106140;1274;113992;-71
2022/01/22 09:47:01;;;;;;;28.50;12.10;;;;;;;-2.36;73.16;98904.91;106200;1274;99262;-70
2022/01/22 09:49:30;;;;;;;28.20;12.10;;;;;;;-2.36;73.18;98909.95;106195;1274;107535;-70
2022/01/22 09:51:59;;;;;;;29.30;12.60;;;;;;;-2.34;73.29;98906.96;106177;1273;99249;-69
2022/01/22 09:54:27;;;;;;;25.60;11.80;;;;;;;-2.31;73.16;98911.77;106195;1273;97815;-70
2022/01/22 09:56:58;;;;;;;29.40;13.40;;;;;;;-2.31;73.22;98918.19;106139;1274;112549;-71
2022/01/22 09:59:26;;;;;;;27.60;11.50;;;;;;;-2.33;73.41;98919.27;106138;1274;98707;-71
2022/01/22 10:02:10;;;;;;;27.50;12.20;;;;;;;-2.33;73.18;98914.23;106127;1274;107640;-70
2022/01/22 10:04:42;;;;;;;31.20;12.00;;;;;;;-2.32;73.48;98911.95;106183;1273;99230;-70
2022/01/22 10:07:18;;;;;;;28.20;11.60;;;;;;;-2.32;73.46;98912.11;106139;1274;99211;-70
2022/01/22 10:09:58;;;;;;;26.90;10.30;;;;;;;-2.33;73.60;98910.93;106059;1274;111770;-71
2022/01/22 10:12:29;;;;;;;27.10;10.80;;;;;;;-2.34;73.55;98907.30;106209;1274;98376;-70
2022/01/22 10:15:13;;;;;;;26.70;10.80;;;;;;;-2.35;73.66;98916.20;106028;1274;107615;-70
2022/01/22 10:17:47;;;;;;;27.90;11.60;;;;;;;-2.37;73.49;98919.54;106185;1274;97075;-70
2022/01/22 10:20:20;;;;;;;28.00;11.20;;;;;;;-2.40;73.65;98919.41;106086;1274;97678;-71
2022/01/22 10:23:20;;;;;;;25.50;10.60;;;;;;;-2.41;73.74;98916.84;106197;1273;113236;-71
2022/01/22 10:25:55;;;;;;;26.10;10.00;;;;;;;-2.43;73.72;98922.95;106098;1274;99301;-69
2022/01/22 10:28:26;;;;;;;28.00;9.60;;;;;;;-2.45;73.68;98925.26;106177;1273;107698;-69
2022/01/22 10:31:08;;;;;;;24.40;10.70;;;;;;;-2.45;73.74;98927.70;106062;1274;99303;-71
2022/01/22 10:33:36;;;;;;;25.60;9.40;;;;;;;-2.46;73.97;98925.97;106167;1274;99297;-71
2022/01/22 10:36:16;;;;;;;24.70;9.50;;;;;;;-2.42;73.93;98935.27;106075;1274;112893;-70
2022/01/22 10:38:50;;;;;;;26.90;10.20;;;;;;;-2.42;73.90;98940.98;106116;1273;99242;-68
2022/01/22 10:41:34;;;;;;;24.90;10.70;;;;;;;-2.41;73.61;98943.73;106007;1274;107515;-68
2022/01/22 10:44:05;;;;;;;25.70;10.90;;;;;;;-2.35;73.80;98949.02;106108;1274;99300;-70
2022/01/22 10:49:16;;;;;;;29.30;11.60;;;;;;;-2.26;73.65;98952.45;106104;1274;114684;-69
2022/01/22 10:51:50;;;;;;;27.60;11.90;;;;;;;-2.25;73.68;98955.04;106081;1272;99087;-72
2022/01/22 10:54:26;;;;;;;28.90;11.00;;;;;;;-2.23;73.83;98956.73;106019;1274;108581;-70
2022/01/22 10:57:26;;;;;;;25.30;11.20;;;;;;;-2.22;73.74;98960.19;106157;1274;99294;-68
2022/01/22 10:59:56;;;;;;;25.40;10.30;;;;;;;-2.22;73.76;98968.17;106127;1272;97411;-71
2022/01/22 11:02:40;;;;;;;27.20;11.10;;;;;;;-2.23;73.83;98966.98;106170;1274;113119;-68
2022/01/22 11:05:08;;;;;;;30.40;11.20;;;;;;;-2.27;73.83;98971.41;106027;1274;99314;-72
2022/01/22 11:07:36;;;;;;;25.90;10.40;;;;;;;-2.29;74.12;98976.33;106162;1273;107795;-69
2022/01/22 11:10:07;;;;;;;27.50;10.80;;;;;;;-2.29;73.79;98977.70;106070;1274;99268;-68
2022/01/22 11:12:35;;;;;;;29.40;12.70;;;;;;;-2.24;73.95;98975.70;106084;1274;99306;-69
2022/01/22 11:15:04;;;;;;;26.50;10.70;;;;;;;-2.20;73.90;98981.86;106046;1274;113326;-71
2022/01/22 11:17:32;;;;;;;26.50;10.10;;;;;;;-2.14;73.76;98985.39;106094;1274;99226;-69
2022/01/22 11:20:03;;;;;;;27.90;10.80;;;;;;;-2.08;74.16;98985.95;105952;1274;107709;-71
2022/01/22 11:22:32;;;;;;;24.00;10.20;;;;;;;-2.03;74.02;98985.13;106046;1274;99224;-71
2022/01/22 11:25:01;;;;;;;27.20;10.60;;;;;;;-1.98;73.99;98993.00;106090;1272;96542;-68
2022/01/22 11:27:32;;;;;;;23.80;9.30;;;;;;;-1.97;73.90;99003.06;106103;1274;112801;-69
2022/01/22 11:30:09;;;;;;;24.60;8.90;;;;;;;-1.94;74.17;99010.83;106092;1274;96567;-69
2022/01/22 11:32:54;;;;;;;26.00;8.90;;;;;;;-1.91;74.03;99015.46;106074;1273;107791;-70
2022/01/22 11:35:39;;;;;;;22.90;9.10;;;;;;;-1.89;73.88;99017.85;105906;1272;99326;-71
2022/01/22 11:38:15;;;;;;;22.30;8.40;;;;;;;-1.84;74.04;99017.91;105918;1273;99234;-70
2022/01/22 11:41:02;;;;;;;26.20;7.80;;;;;;;-1.84;74.06;99023.47;105938;1274;112806;-71
2022/01/22 11:46:34;;;;;;;27.10;8.60;;;;;;;-1.83;73.97;99040.30;105966;1274;107800;-71
2022/01/22 11:49:25;;;;;;;23.90;8.70;;;;;;;-1.78;73.86;99047.50;105990;1272;99264;-69
2022/01/22 11:52:15;;;;;;;23.80;7.80;;;;;;;-1.75;74.10;99059.94;106038;1274;99285;-69
2022/01/22 11:55:00;;;;;;;22.20;7.50;;;;;;;-1.74;74.23;99062.70;105826;1273;112816;-71
2022/01/22 11:57:31;;;;;;;25.30;10.10;;;;;;;-1.73;74.11;99074.86;105973;1274;99269;-72
2022/01/22 12:00:22;;;;;;;26.00;9.80;;;;;;;-1.72;74.21;99077.43;105946;1274;107748;-68
2022/01/22 12:03:08;;;;;;;29.40;10.00;;;;;;;-1.70;74.24;99082.27;106055;1274;99233;-72
2022/01/22 12:05:58;;;;;;;32.30;11.20;;;;;;;-1.68;74.01;99085.35;105989;1274;96718;-72
2022/01/22 12:08:26;;;;;;;29.30;11.20;;;;;;;-1.67;74.03;99082.02;106103;1274;113775;-72
2022/01/22 12:16:40;;;;;;;26.40;8.40;;;;;;;-1.59;74.13;99078.02;106077;1274;99837;-72
2022/01/22 12:19:51;;;;;;;27.60;9.10;;;;;;;-1.55;74.06;99083.66;106046;1274;99233;-70
2022/01/22 12:22:47;;;;;;;26.90;10.80;;;;;;;-1.49;74.19;99083.70;106087;1274;112881;-71
2022/01/22 12:25:15;;;;;;;28.20;9.70;;;;;;;-1.46;74.16;99086.59;106031;1272;96592;-72
2022/01/22 12:27:50;;;;;;;22.10;8.10;;;;;;;-1.43;74.18;99090.88;106050;1274;107864;-71
2022/01/22 12:30:39;;;;;;;24.10;8.40;;;;;;;-1.43;73.93;99094.69;105968;1274;99298;-70
2022/01/22 12:33:13;;;;;;;24.70;8.80;;;;;;;-1.42;74.27;99095.90;105952;1274;99269;-71
2022/01/22 12:35:47;;;;;;;26.30;9.40;;;;;;;-1.40;74.05;99102.45;105987;1274;112653;-68
2022/01/22 12:39:12;;;;;;;24.20;8.40;;;;;;;-1.35;74.15;99113.28;105994;1274;99288;-71
2022/01/22 12:46:54;;;;;;;21.50;8.30;;;;;;;-1.25;74.14;99125.95;106087;1274;99278;-72
2022/01/22 12:49:25;;;;;;;22.90;9.10;;;;;;;-1.27;74.09;99127.05;106047;1274;112856;-71
2022/01/22 12:51:55;;;;;;;25.30;9.80;;;;;;;-1.29;74.20;99132.46;105960;1272;100330;-68
2022/01/22 12:54:29;;;;;;;21.30;8.40;;;;;;;-1.29;74.05;99136.14;105993;1274;106707;-70
2022/01/22 12:57:04;;;;;;;23.10;9.10;;;;;;;-1.31;74.12;99144.02;105918;1274;99339;-70
2022/01/22 12:59:34;;;;;;;25.30;8.80;;;;;;;-1.33;74.10;99147.35;106009;1273;99089;-71
2022/01/22 13:02:03;;;;;;;24.50;9.10;;;;;;;-1.33;74.10;99153.44;105990;1274;112641;-71
2022/01/22 13:04:31;;;;;;;22.30;8.00;;;;;;;-1.33;74.10;99158.66;106005;1273;96615;-71
2022/01/22 13:07:01;;;;;;;22.50;8.00;;;;;;;-1.33;74.05;99159.35;105930;1272;107159;-71
2022/01/22 13:09:51;;;;;;;26.20;9.70;;;;;;;-1.32;74.03;99163.17;105975;1273;99241;-71
2022/01/22 13:12:19;;;;;;;25.20;9.90;;;;;;;-1.33;74.07;99170.83;105993;1274;99299;-69
2022/01/22 13:14:55;;;;;;;29.20;12.00;;;;;;;-1.31;73.91;99176.70;105972;1274;112692;-70
2022/01/22 13:17:32;;;;;;;29.90;12.80;;;;;;;-1.29;74.18;99182.60;105975;1274;97732;-69
2022/01/22 13:20:00;;;;;;;36.60;14.20;;;;;;;-1.27;74.22;99186.38;105972;1274;107485;-72
2022/01/22 13:22:38;;;;;;;34.50;13.90;;;;;;;-1.26;73.97;99188.09;105971;1272;98353;-70
2022/01/22 13:25:13;;;;;;;29.60;12.10;;;;;;;-1.25;73.94;99183.36;106008;1274;96593;-72
2022/01/22 13:27:42;;;;;;;25.70;9.80;;;;;;;-1.24;74.13;99181.95;106207;1274;112758;-70